createdAt,value
2016-06-10T00:00:01.971Z,96.27
2016-06-10T00:00:11.974Z,96.46
2016-06-10T00:00:21.974Z,96.37
2016-06-10T00:00:31.989Z,96.56
2016-06-10T00:00:41.989Z,96.56
2016-06-10T00:00:51.989Z,96.56
2016-06-10T00:01:02.005Z,96.75
2016-06-10T00:01:12.008Z,96.84
2016-06-10T00:01:22.008Z,96.56
2016-06-10T00:01:32.023Z,96.56
2016-06-10T00:01:42.023Z,96.27
2016-06-10T00:01:52.023Z,96.75
2016-06-10T00:02:02.023Z,96.84
2016-06-10T00:02:12.042Z,96.75
2016-06-10T00:02:22.042Z,96.94
2016-06-10T00:02:32.042Z,96.94
2016-06-10T00:02:42.058Z,96.84
2016-06-10T00:02:52.058Z,96.84
2016-06-10T00:03:02.058Z,96.84
2016-06-10T00:03:12.076Z,96.84
2016-06-10T00:03:22.076Z,96.75
2016-06-10T00:03:32.076Z,96.75
2016-06-10T00:03:42.076Z,96.75
2016-06-10T00:03:52.092Z,96.94
2016-06-10T00:04:02.092Z,96.66
2016-06-10T00:04:12.095Z,96.75
2016-06-10T00:04:22.095Z,96.75
2016-06-10T00:04:32.111Z,96.84
2016-06-10T00:04:42.111Z,96.75
2016-06-10T00:04:52.111Z,96.84
2016-06-10T00:05:02.126Z,96.56
2016-06-10T00:05:12.130Z,97.13
2016-06-10T00:05:22.130Z,97.32
2016-06-10T00:05:32.130Z,97.13
2016-06-10T00:05:42.146Z,97.42
2016-06-10T00:05:52.146Z,97.03
2016-06-10T00:06:02.161Z,97.03
2016-06-10T00:06:12.163Z,97.03
2016-06-10T00:06:22.163Z,97.03
2016-06-10T00:06:32.163Z,97.03
2016-06-10T00:06:42.179Z,97.13
2016-06-10T00:06:52.179Z,97.03
2016-06-10T00:07:02.179Z,97.42
2016-06-10T00:07:12.199Z,97.13
2016-06-10T00:07:22.199Z,97.42
2016-06-10T00:07:32.199Z,97.51
2016-06-10T00:07:42.199Z,97.32
2016-06-10T00:07:52.214Z,97.42
2016-06-10T00:08:02.214Z,97.32
2016-06-10T00:08:12.217Z,97.22
2016-06-10T00:08:22.233Z,97.27
2016-06-10T00:08:32.233Z,96.94
2016-06-10T00:08:42.233Z,97.61
2016-06-10T00:08:52.233Z,97.42
2016-06-10T00:09:02.249Z,97.22
2016-06-10T00:09:13.017Z,97.32
2016-06-10T00:09:22.783Z,97.56
2016-06-10T00:09:32.267Z,97.61
2016-06-10T00:09:42.486Z,97.51
2016-06-10T00:09:52.736Z,97.94
2016-06-10T00:10:02.267Z,97.61
2016-06-10T00:10:12.333Z,97.8
2016-06-10T00:10:22.333Z,97.46
2016-06-10T00:10:32.286Z,97.71
2016-06-10T00:10:42.301Z,98.03
2016-06-10T00:10:52.301Z,97.94
2016-06-10T00:11:02.317Z,97.71
2016-06-10T00:11:12.320Z,97.75
2016-06-10T00:11:22.320Z,97.71
2016-06-10T00:11:32.320Z,97.89
2016-06-10T00:11:42.320Z,97.8
2016-06-10T00:11:52.336Z,97.75
2016-06-10T00:12:02.336Z,97.66
2016-06-10T00:12:12.339Z,97.66
2016-06-10T00:12:22.354Z,97.71
2016-06-10T00:12:32.354Z,97.71
2016-06-10T00:12:42.354Z,97.75
2016-06-10T00:12:52.448Z,97.8
2016-06-10T00:13:02.370Z,97.75
2016-06-10T00:13:12.373Z,97.37
2016-06-10T00:13:22.373Z,97.56
2016-06-10T00:13:32.389Z,97.56
2016-06-10T00:13:42.389Z,98.08
2016-06-10T00:13:52.389Z,97.94
2016-06-10T00:14:02.404Z,98.13
2016-06-10T00:14:12.407Z,98.03
2016-06-10T00:14:22.407Z,98.22
2016-06-10T00:14:32.423Z,98.03
2016-06-10T00:14:42.423Z,98.08
2016-06-10T00:14:52.423Z,97.94
2016-06-10T00:15:02.454Z,98.03
2016-06-10T00:15:12.441Z,97.8
2016-06-10T00:15:22.441Z,97.94
2016-06-10T00:15:32.441Z,97.56
2016-06-10T00:15:42.457Z,98.13
2016-06-10T00:15:52.457Z,98.13
2016-06-10T00:16:02.457Z,97.94
2016-06-10T00:16:12.476Z,98.13
2016-06-10T00:16:22.476Z,98.03
2016-06-10T00:16:32.476Z,97.75
2016-06-10T00:16:42.476Z,97.75
2016-06-10T00:16:52.491Z,97.94
2016-06-10T00:17:02.491Z,98.03
2016-06-10T00:17:12.495Z,97.94
2016-06-10T00:17:22.511Z,97.94
2016-06-10T00:17:32.511Z,97.85
2016-06-10T00:17:42.511Z,98.22
2016-06-10T00:17:52.511Z,98.03
2016-06-10T00:18:02.527Z,98.22
2016-06-10T00:18:12.530Z,98.42
2016-06-10T00:18:22.530Z,98.42
2016-06-10T00:18:32.545Z,98.51
2016-06-10T00:18:42.545Z,98.42
2016-06-10T00:18:52.545Z,98.42
2016-06-10T00:19:02.561Z,98.42
2016-06-10T00:19:12.594Z,98.22
2016-06-10T00:19:22.594Z,98.51
2016-06-10T00:19:32.563Z,98.32
2016-06-10T00:19:42.625Z,98.51
2016-06-10T00:19:52.578Z,98.51
2016-06-10T00:20:02.641Z,98.32
2016-06-10T00:20:12.628Z,98.32
2016-06-10T00:20:22.613Z,98.51
2016-06-10T00:20:32.691Z,98.42
2016-06-10T00:20:42.597Z,98.51
2016-06-10T00:20:52.613Z,98.51
2016-06-10T00:21:02.644Z,98.7
2016-06-10T00:21:12.679Z,98.51
2016-06-10T00:21:22.632Z,98.51
2016-06-10T00:21:32.632Z,98.51
2016-06-10T00:21:42.632Z,98.7
2016-06-10T00:21:52.679Z,98.42
2016-06-10T00:22:02.648Z,98.8
2016-06-10T00:22:21.667Z,98.7
2016-06-10T00:22:31.620Z,98.51
2016-06-10T00:22:41.620Z,98.51
2016-06-10T00:22:51.698Z,98.32
2016-06-10T00:23:01.932Z,98.42
2016-06-10T00:23:11.700Z,98.51
2016-06-10T00:23:21.653Z,98.42
2016-06-10T00:23:32.044Z,98.32
2016-06-10T00:23:41.653Z,98.51
2016-06-10T00:23:51.950Z,98.61
2016-06-10T00:24:01.809Z,98.61
2016-06-10T00:24:11.891Z,98.51
2016-06-10T00:24:21.766Z,98.42
2016-06-10T00:24:31.688Z,98.51
2016-06-10T00:24:41.829Z,98.22
2016-06-10T00:24:51.704Z,98.22
2016-06-10T00:25:01.719Z,98.99
2016-06-10T00:25:11.707Z,99.27
2016-06-10T00:25:21.801Z,98.99
2016-06-10T00:25:31.816Z,98.9
2016-06-10T00:25:41.769Z,99.08
2016-06-10T00:25:51.785Z,98.99
2016-06-10T00:26:01.785Z,98.61
2016-06-10T00:26:11.772Z,98.61
2016-06-10T00:26:21.757Z,98.8
2016-06-10T00:26:31.835Z,98.7
2016-06-10T00:26:41.788Z,98.7
2016-06-10T00:26:51.850Z,98.61
2016-06-10T00:27:01.788Z,98.7
2016-06-10T00:27:11.807Z,98.7
2016-06-10T00:27:21.853Z,98.9
2016-06-10T00:27:31.807Z,98.7
2016-06-10T00:27:41.838Z,98.8
2016-06-10T00:27:51.822Z,98.8
2016-06-10T00:28:01.869Z,98.61
2016-06-10T00:28:11.856Z,98.9
2016-06-10T00:28:21.825Z,98.8
2016-06-10T00:28:31.856Z,98.51
2016-06-10T00:28:41.841Z,98.7
2016-06-10T00:28:51.841Z,98.8
2016-06-10T00:29:01.903Z,98.8
2016-06-10T00:29:11.922Z,98.51
2016-06-10T00:29:21.859Z,98.7
2016-06-10T00:29:31.875Z,99.18
2016-06-10T00:29:41.859Z,98.9
2016-06-10T00:29:51.875Z,98.51
2016-06-10T00:30:01.922Z,98.7
2016-06-10T00:30:21.128Z,98.22
2016-06-10T00:30:31.034Z,99.08
2016-06-10T00:30:41.034Z,98.99
2016-06-10T00:30:51.081Z,99.18
2016-06-10T00:31:01.066Z,99.08
2016-06-10T00:31:11.081Z,98.99
2016-06-10T00:31:21.115Z,99.18
2016-06-10T00:31:31.100Z,99.18
2016-06-10T00:31:41.115Z,99.18
2016-06-10T00:31:51.084Z,99.27
2016-06-10T00:32:01.131Z,99.37
2016-06-10T00:32:11.084Z,98.99
2016-06-10T00:32:21.087Z,99.08
2016-06-10T00:32:31.118Z,99.08
2016-06-10T00:32:41.150Z,99.18
2016-06-10T00:32:51.118Z,99.18
2016-06-10T00:33:10.384Z,99.27
2016-06-10T00:33:20.309Z,99.27
2016-06-10T00:33:30.309Z,99.08
2016-06-10T00:33:49.356Z,99.37
2016-06-10T00:33:59.340Z,99.37
2016-06-10T00:34:09.418Z,99.08
2016-06-10T00:34:19.375Z,99.18
2016-06-10T00:34:29.438Z,99.46
2016-06-10T00:34:39.360Z,99.27
2016-06-10T00:34:49.344Z,99.18
2016-06-10T00:34:59.438Z,99.18
2016-06-10T00:35:09.422Z,99.18
2016-06-10T00:35:19.363Z,99.18
2016-06-10T00:35:29.410Z,99.18
2016-06-10T00:35:57.597Z,99.46
2016-06-10T00:36:07.582Z,99.46
2016-06-10T00:36:17.585Z,99.37
2016-06-10T00:36:27.600Z,99.37
2016-06-10T00:36:37.663Z,99.27
2016-06-10T00:36:47.663Z,99.37
2016-06-10T00:36:57.631Z,99.18
2016-06-10T00:37:07.663Z,99.18
2016-06-10T00:37:17.681Z,99.37
2016-06-10T00:37:27.634Z,99.46
2016-06-10T00:37:37.697Z,99.27
2016-06-10T00:37:47.666Z,99.37
2016-06-10T00:37:57.697Z,99.27
2016-06-10T00:38:07.650Z,99.75
2016-06-10T00:38:17.716Z,99.56
2016-06-10T00:38:27.669Z,99.75
2016-06-10T00:38:37.669Z,99.75
2016-06-10T00:38:47.731Z,99.75
2016-06-10T00:38:57.684Z,99.75
2016-06-10T00:39:07.731Z,99.46
2016-06-10T00:39:17.797Z,99.56
2016-06-10T00:39:27.750Z,99.75
2016-06-10T00:40:00.828Z,99.75
2016-06-10T00:40:11.312Z,99.56
2016-06-10T00:40:20.768Z,99.66
2016-06-10T00:40:30.831Z,99.46
2016-06-10T00:40:40.800Z,99.66
2016-06-10T00:40:50.831Z,99.66
2016-06-10T00:41:00.815Z,99.37
2016-06-10T00:41:10.831Z,99.66
2016-06-10T00:41:20.850Z,99.75
2016-06-10T00:41:30.803Z,99.66
2016-06-10T00:41:40.834Z,99.56
2016-06-10T00:41:50.881Z,99.99
2016-06-10T00:42:00.881Z,99.99
2016-06-10T00:42:10.881Z,99.99
2016-06-10T00:42:20.868Z,99.95
2016-06-10T00:42:30.853Z,99.95
2016-06-10T00:42:40.899Z,99.99
2016-06-10T00:42:50.868Z,99.75
2016-06-10T00:43:00.868Z,99.56
2016-06-10T00:43:11.118Z,99.56
2016-06-10T00:43:20.857Z,99.75
2016-06-10T00:43:30.903Z,99.75
2016-06-10T00:43:40.935Z,99.75
2016-06-10T00:43:50.857Z,99.85
2016-06-10T00:44:00.872Z,99.99
2016-06-10T00:44:10.888Z,99.85
2016-06-10T00:44:20.905Z,99.95
2016-06-10T00:44:30.921Z,99.99
2016-06-10T00:44:40.905Z,99.66
2016-06-10T00:44:50.921Z,99.99
2016-06-10T00:45:00.905Z,99.66
2016-06-10T00:45:10.968Z,99.85
2016-06-10T00:45:20.955Z,99.85
2016-06-10T00:45:30.955Z,99.95
2016-06-10T00:45:40.987Z,99.85
2016-06-10T00:45:51.002Z,99.99
2016-06-10T00:46:10.424Z,99.95
2016-06-10T00:46:20.334Z,99.85
2016-06-10T00:46:30.319Z,99.85
2016-06-10T00:46:49.522Z,99.66
2016-06-10T00:46:59.522Z,99.46
2016-06-10T00:47:09.537Z,99.56
2016-06-10T00:47:19.478Z,99.41
2016-06-10T00:47:29.494Z,99.56
2016-06-10T00:47:39.478Z,99.66
2016-06-10T00:47:49.759Z,99.66
2016-06-10T00:47:59.525Z,99.8
2016-06-10T00:48:09.509Z,99.7
2016-06-10T00:48:19.575Z,99.99
2016-06-10T00:48:29.512Z,99.99
2016-06-10T00:48:39.559Z,99.99
2016-06-10T00:48:49.528Z,99.99
2016-06-10T00:48:59.512Z,99.99
2016-06-10T00:49:09.793Z,99.99
2016-06-10T00:49:19.545Z,99.99
2016-06-10T00:49:29.545Z,99.99
2016-06-10T00:49:39.592Z,99.99
2016-06-10T00:49:49.561Z,99.99
2016-06-10T00:49:59.577Z,99.99
2016-06-10T00:50:09.592Z,99.99
2016-06-10T00:50:19.581Z,99.99
2016-06-10T00:50:29.612Z,99.99
2016-06-10T00:50:39.549Z,99.99
2016-06-10T00:50:49.596Z,99.99
2016-06-10T00:50:59.643Z,99.99
2016-06-10T00:51:09.643Z,99.99
2016-06-10T00:51:19.584Z,99.99
2016-06-10T00:51:29.615Z,99.99
2016-06-10T00:51:39.568Z,99.99
2016-06-10T00:51:49.677Z,99.99
2016-06-10T00:51:59.599Z,99.99
2016-06-10T00:52:09.646Z,99.99
2016-06-10T00:52:19.618Z,99.99
2016-06-10T00:52:29.634Z,99.99
2016-06-10T00:52:39.649Z,99.99
2016-06-10T00:52:49.634Z,99.99
2016-06-10T00:52:59.899Z,99.99
2016-06-10T00:53:09.712Z,99.99
2016-06-10T00:53:19.715Z,99.99
2016-06-10T00:53:29.683Z,99.99
2016-06-10T00:53:39.683Z,99.99
2016-06-10T00:53:49.683Z,99.99
2016-06-10T00:53:59.746Z,99.99
2016-06-10T00:54:09.746Z,99.99
2016-06-10T00:54:19.718Z,99.99
2016-06-10T00:54:29.983Z,99.99
2016-06-10T00:54:39.686Z,99.99
2016-06-10T00:54:49.749Z,99.99
2016-06-10T00:54:59.765Z,99.99
2016-06-10T00:55:09.765Z,99.99
2016-06-10T00:55:19.768Z,99.99
2016-06-10T00:55:29.783Z,99.99
2016-06-10T00:55:39.783Z,99.99
2016-06-10T00:55:49.736Z,99.99
2016-06-10T00:55:59.799Z,99.99
2016-06-10T00:56:09.768Z,99.99
2016-06-10T00:56:19.771Z,99.99
2016-06-10T00:56:29.802Z,99.99
2016-06-10T00:56:39.802Z,99.99
2016-06-10T00:56:49.802Z,99.99
2016-06-10T00:56:59.739Z,99.99
2016-06-10T00:57:09.755Z,99.99
2016-06-10T00:57:19.805Z,99.99
2016-06-10T00:57:29.789Z,99.99
2016-06-10T00:57:39.836Z,99.99
2016-06-10T00:57:49.789Z,99.99
2016-06-10T00:57:59.852Z,99.99
2016-06-10T00:58:09.820Z,99.99
2016-06-10T00:58:19.808Z,99.99
2016-06-10T00:58:29.808Z,99.99
2016-06-10T00:58:39.823Z,99.99
2016-06-10T00:58:49.823Z,99.99
2016-06-10T00:58:59.823Z,99.99
2016-06-10T00:59:09.839Z,99.99
2016-06-10T00:59:19.859Z,99.99
2016-06-10T00:59:29.843Z,99.99
2016-06-10T00:59:39.843Z,99.99
2016-06-10T00:59:49.843Z,99.99
2016-06-10T00:59:59.859Z,99.99
2016-06-10T01:00:09.890Z,99.99
2016-06-10T01:00:19.924Z,99.99
2016-06-10T01:00:29.924Z,99.99
2016-06-10T01:00:39.862Z,99.99
2016-06-10T01:00:49.893Z,99.99
2016-06-10T01:00:59.940Z,99.99
2016-06-10T01:01:09.909Z,99.99
2016-06-10T01:01:20.005Z,99.99
2016-06-10T01:01:29.958Z,99.99
2016-06-10T01:01:39.958Z,99.99
2016-06-10T01:01:49.912Z,99.99
2016-06-10T01:01:59.896Z,99.99
2016-06-10T01:02:09.912Z,99.99
2016-06-10T01:02:19.993Z,99.99
2016-06-10T01:02:29.930Z,99.99
2016-06-10T01:02:39.977Z,99.99
2016-06-10T01:02:49.993Z,99.99
2016-06-10T01:03:00.196Z,99.99
2016-06-10T01:03:09.946Z,99.99
2016-06-10T01:03:19.964Z,99.99
2016-06-10T01:03:29.980Z,99.99
2016-06-10T01:03:40.011Z,99.99
2016-06-10T01:03:49.980Z,99.99
2016-06-10T01:03:59.980Z,99.99
2016-06-10T01:04:10.027Z,99.99
2016-06-10T01:04:20.014Z,99.99
2016-06-10T01:04:30.046Z,99.99
2016-06-10T01:04:39.983Z,99.99
2016-06-10T01:04:50.108Z,99.99
2016-06-10T01:05:00.061Z,99.99
2016-06-10T01:05:09.999Z,99.99
2016-06-10T01:05:20.017Z,99.99
2016-06-10T01:05:30.002Z,99.99
2016-06-10T01:05:40.033Z,99.99
2016-06-10T01:05:50.033Z,99.99
2016-06-10T01:06:00.017Z,99.99
2016-06-10T01:06:10.033Z,99.99
2016-06-10T01:06:20.083Z,99.99
2016-06-10T01:06:30.083Z,99.99
2016-06-10T01:06:40.083Z,99.99
2016-06-10T01:06:50.114Z,99.99
2016-06-10T01:07:00.052Z,99.99
2016-06-10T01:07:10.098Z,99.99
2016-06-10T01:07:20.351Z,99.99
2016-06-10T01:07:30.086Z,99.99
2016-06-10T01:07:40.086Z,99.99
2016-06-10T01:07:50.101Z,99.99
2016-06-10T01:08:00.101Z,99.99
2016-06-10T01:08:10.101Z,99.99
2016-06-10T01:08:20.167Z,99.99
2016-06-10T01:08:30.120Z,99.99
2016-06-10T01:08:40.167Z,99.99
2016-06-10T01:08:50.198Z,99.99
2016-06-10T01:09:00.136Z,99.99
2016-06-10T01:09:10.183Z,99.99
2016-06-10T01:09:20.154Z,99.99
2016-06-10T01:09:30.170Z,99.99
2016-06-10T01:09:40.139Z,99.99
2016-06-10T01:09:50.170Z,99.99
2016-06-10T01:10:00.186Z,99.99
2016-06-10T01:10:10.232Z,99.99
2016-06-10T01:10:20.518Z,99.99
2016-06-10T01:10:30.205Z,99.99
2016-06-10T01:10:40.158Z,99.99
2016-06-10T01:10:50.236Z,99.99
2016-06-10T01:11:00.221Z,99.99
2016-06-10T01:11:10.252Z,99.99
2016-06-10T01:11:20.193Z,99.99
2016-06-10T01:11:30.271Z,99.99
2016-06-10T01:11:40.208Z,99.99
2016-06-10T01:11:50.239Z,99.99
2016-06-10T01:12:00.208Z,99.99
2016-06-10T01:12:10.255Z,99.99
2016-06-10T01:12:20.258Z,99.99
2016-06-10T01:12:30.227Z,99.99
2016-06-10T01:12:40.258Z,99.99
2016-06-10T01:12:50.305Z,99.99
2016-06-10T01:13:00.227Z,99.99
2016-06-10T01:13:10.227Z,99.99
2016-06-10T01:13:20.230Z,99.99
2016-06-10T01:13:30.292Z,99.99
2016-06-10T01:13:40.308Z,99.99
2016-06-10T01:13:50.324Z,99.99
2016-06-10T01:14:00.277Z,99.99
2016-06-10T01:14:10.308Z,99.99
2016-06-10T01:14:20.264Z,99.99
2016-06-10T01:14:30.264Z,99.99
2016-06-10T01:14:40.280Z,99.99
2016-06-10T01:14:50.280Z,99.99
2016-06-10T01:15:00.280Z,99.99
2016-06-10T01:15:10.280Z,99.99
2016-06-10T01:15:20.298Z,99.99
2016-06-10T01:15:30.298Z,99.99
2016-06-10T01:15:40.298Z,99.99
2016-06-10T01:15:50.314Z,99.99
2016-06-10T01:16:00.314Z,99.99
2016-06-10T01:16:10.314Z,99.99
2016-06-10T01:16:20.317Z,99.99
2016-06-10T01:16:30.333Z,99.99
2016-06-10T01:16:40.333Z,99.99
2016-06-10T01:16:50.333Z,99.99
2016-06-10T01:17:00.348Z,99.99
2016-06-10T01:17:10.348Z,99.99
2016-06-10T01:17:20.351Z,99.99
2016-06-10T01:17:30.351Z,99.99
2016-06-10T01:17:40.367Z,99.99
2016-06-10T01:17:50.398Z,99.99
2016-06-10T01:18:00.414Z,99.99
2016-06-10T01:18:10.445Z,99.99
2016-06-10T01:18:20.417Z,99.99
2016-06-10T01:18:30.479Z,99.99
2016-06-10T01:18:40.417Z,99.99
2016-06-10T01:18:50.479Z,99.99
2016-06-10T01:19:00.401Z,99.99
2016-06-10T01:19:10.448Z,99.99
2016-06-10T01:19:20.420Z,99.99
2016-06-10T01:19:30.467Z,99.99
2016-06-10T01:19:40.482Z,99.99
2016-06-10T01:19:50.467Z,99.99
2016-06-10T01:20:00.513Z,99.99
2016-06-10T01:20:10.451Z,99.99
2016-06-10T01:20:20.533Z,99.99
2016-06-10T01:20:30.471Z,99.99
2016-06-10T01:20:40.533Z,99.99
2016-06-10T01:20:50.486Z,99.99
2016-06-10T01:21:00.486Z,99.99
2016-06-10T01:21:10.549Z,99.99
2016-06-10T01:21:20.504Z,99.99
2016-06-10T01:21:30.535Z,99.99
2016-06-10T01:21:40.519Z,99.99
2016-06-10T01:21:50.566Z,99.99
2016-06-10T01:22:00.551Z,99.99
2016-06-10T01:22:10.551Z,99.99
2016-06-10T01:22:20.538Z,99.99
2016-06-10T01:22:30.554Z,99.99
2016-06-10T01:22:40.569Z,99.99
2016-06-10T01:22:50.538Z,99.99
2016-06-10T01:23:00.554Z,99.99
2016-06-10T01:23:10.601Z,99.99
2016-06-10T01:23:20.604Z,99.99
2016-06-10T01:23:30.604Z,99.99
2016-06-10T01:23:40.619Z,99.99
2016-06-10T01:23:50.635Z,99.99
2016-06-10T01:24:00.604Z,99.99
2016-06-10T01:24:10.588Z,99.99
2016-06-10T01:24:20.608Z,99.99
2016-06-10T01:24:30.623Z,99.99
2016-06-10T01:24:40.654Z,99.99
2016-06-10T01:24:50.608Z,99.99
2016-06-10T01:25:00.639Z,99.99
2016-06-10T01:25:10.623Z,99.99
2016-06-10T01:25:20.672Z,99.99
2016-06-10T01:25:30.641Z,99.99
2016-06-10T01:25:40.672Z,99.99
2016-06-10T01:25:50.688Z,99.99
2016-06-10T01:26:00.656Z,99.99
2016-06-10T01:26:10.703Z,99.99
2016-06-10T01:26:20.676Z,99.99
2016-06-10T01:26:30.660Z,99.99
2016-06-10T01:26:40.676Z,99.99
2016-06-10T01:26:50.723Z,99.99
2016-06-10T01:27:00.692Z,99.99
2016-06-10T01:27:10.676Z,99.99
2016-06-10T01:27:20.678Z,99.99
2016-06-10T01:27:30.709Z,99.99
2016-06-10T01:27:40.694Z,99.99
2016-06-10T01:27:50.694Z,99.99
2016-06-10T01:28:00.756Z,99.99
2016-06-10T01:28:10.772Z,99.99
2016-06-10T01:28:20.729Z,99.99
2016-06-10T01:28:30.713Z,99.99
2016-06-10T01:28:40.698Z,99.99
2016-06-10T01:28:50.791Z,99.99
2016-06-10T01:29:00.760Z,99.99
2016-06-10T01:29:10.791Z,99.99
2016-06-10T01:29:20.762Z,99.99
2016-06-10T01:29:30.778Z,99.99
2016-06-10T01:29:40.747Z,99.99
2016-06-10T01:29:50.731Z,99.99
2016-06-10T01:30:00.731Z,99.99
2016-06-10T01:30:10.731Z,99.99
2016-06-10T01:30:20.751Z,99.99
2016-06-10T01:30:30.751Z,99.99
2016-06-10T01:30:40.751Z,99.99
2016-06-10T01:30:50.751Z,99.99
2016-06-10T01:31:00.766Z,99.99
2016-06-10T01:31:10.766Z,99.99
2016-06-10T01:31:20.768Z,99.99
2016-06-10T01:31:30.784Z,99.99
2016-06-10T01:31:40.784Z,99.99
2016-06-10T01:31:50.784Z,99.99
2016-06-10T01:32:00.799Z,99.99
2016-06-10T01:32:10.799Z,99.99
2016-06-10T01:32:20.803Z,99.99
2016-06-10T01:32:30.803Z,99.99
2016-06-10T01:32:40.803Z,99.99
2016-06-10T01:32:50.819Z,99.99
2016-06-10T01:33:00.819Z,99.99
2016-06-10T01:33:10.819Z,99.99
2016-06-10T01:33:20.838Z,99.99
2016-06-10T01:33:30.838Z,99.99
2016-06-10T01:33:40.838Z,99.99
2016-06-10T01:33:50.853Z,99.99
2016-06-10T01:34:00.885Z,99.99
2016-06-10T01:34:10.853Z,99.99
2016-06-10T01:34:20.919Z,99.99
2016-06-10T01:34:30.919Z,99.99
2016-06-10T01:34:40.966Z,99.99
2016-06-10T01:34:50.888Z,99.99
2016-06-10T01:35:00.919Z,99.99
2016-06-10T01:35:10.919Z,99.99
2016-06-10T01:35:20.922Z,99.99
2016-06-10T01:35:30.953Z,99.99
2016-06-10T01:35:41.000Z,99.99
2016-06-10T01:35:51.000Z,99.99
2016-06-10T01:36:00.937Z,99.99
2016-06-10T01:36:10.937Z,99.99
2016-06-10T01:36:20.957Z,99.99
2016-06-10T01:36:30.957Z,99.99
2016-06-10T01:36:40.973Z,99.99
2016-06-10T01:36:50.973Z,99.99
2016-06-10T01:37:00.973Z,99.99
2016-06-10T01:37:10.957Z,99.99
2016-06-10T01:37:21.006Z,99.99
2016-06-10T01:37:30.975Z,99.99
2016-06-10T01:37:41.022Z,99.99
2016-06-10T01:37:50.990Z,99.99
2016-06-10T01:38:01.006Z,99.99
2016-06-10T01:38:11.006Z,99.99
2016-06-10T01:38:21.040Z,99.99
2016-06-10T01:38:31.025Z,99.99
2016-06-10T01:38:41.025Z,99.99
2016-06-10T01:38:51.025Z,99.99
2016-06-10T01:39:01.103Z,99.99
2016-06-10T01:39:11.025Z,99.99
2016-06-10T01:39:21.029Z,99.99
2016-06-10T01:39:31.044Z,99.99
2016-06-10T01:39:41.107Z,99.99
2016-06-10T01:39:51.075Z,99.99
2016-06-10T01:40:01.107Z,99.99
2016-06-10T01:40:11.247Z,99.99
2016-06-10T01:40:21.094Z,99.99
2016-06-10T01:40:31.125Z,99.99
2016-06-10T01:40:41.157Z,99.99
2016-06-10T01:40:51.219Z,99.99
2016-06-10T01:41:01.157Z,99.99
2016-06-10T01:41:11.125Z,99.99
2016-06-10T01:41:21.127Z,99.99
2016-06-10T01:41:31.159Z,99.99
2016-06-10T01:41:41.174Z,99.99
2016-06-10T01:41:51.174Z,99.99
2016-06-10T01:42:01.143Z,99.99
2016-06-10T01:42:11.174Z,99.99
2016-06-10T01:42:21.194Z,99.99
2016-06-10T01:42:31.194Z,99.99
2016-06-10T01:42:41.209Z,99.99
2016-06-10T01:42:51.209Z,99.99
2016-06-10T01:43:01.209Z,99.99
2016-06-10T01:43:11.178Z,99.99
2016-06-10T01:43:21.181Z,99.99
2016-06-10T01:43:31.181Z,99.99
2016-06-10T01:43:41.197Z,99.99
2016-06-10T01:43:51.228Z,99.99
2016-06-10T01:44:01.228Z,99.99
2016-06-10T01:44:11.244Z,99.99
2016-06-10T01:44:21.215Z,99.99
2016-06-10T01:44:31.231Z,99.99
2016-06-10T01:44:41.262Z,99.99
2016-06-10T01:44:51.247Z,99.99
2016-06-10T01:45:01.231Z,99.99
2016-06-10T01:45:11.231Z,99.99
2016-06-10T01:45:21.265Z,99.99
2016-06-10T01:45:31.281Z,99.99
2016-06-10T01:45:41.281Z,99.99
2016-06-10T01:45:51.250Z,99.99
2016-06-10T01:46:01.250Z,99.99
2016-06-10T01:46:11.250Z,99.99
2016-06-10T01:46:21.268Z,99.99
2016-06-10T01:46:31.300Z,99.99
2016-06-10T01:46:41.315Z,99.99
2016-06-10T01:46:51.237Z,99.99
2016-06-10T01:47:01.237Z,99.99
2016-06-10T01:47:11.253Z,99.99
2016-06-10T01:47:21.256Z,99.99
2016-06-10T01:47:31.256Z,99.99
2016-06-10T01:47:41.256Z,99.99
2016-06-10T01:47:51.271Z,99.99
2016-06-10T01:48:01.271Z,99.99
2016-06-10T01:48:11.271Z,99.99
2016-06-10T01:48:21.290Z,99.99
2016-06-10T01:48:31.290Z,99.99
2016-06-10T01:48:41.290Z,99.99
2016-06-10T01:48:51.290Z,99.99
2016-06-10T01:49:01.306Z,99.99
2016-06-10T01:49:11.306Z,99.99
2016-06-10T01:49:21.309Z,99.99
2016-06-10T01:49:31.309Z,99.99
2016-06-10T01:49:41.324Z,99.99
2016-06-10T01:49:51.324Z,99.99
2016-06-10T01:50:01.324Z,99.99
2016-06-10T01:50:11.340Z,99.99
2016-06-10T01:50:21.343Z,99.99
2016-06-10T01:50:31.343Z,99.99
2016-06-10T01:50:41.358Z,99.99
2016-06-10T01:50:51.358Z,99.99
2016-06-10T01:51:01.358Z,99.99
2016-06-10T01:51:11.358Z,99.99
2016-06-10T01:51:21.378Z,99.99
2016-06-10T01:51:31.378Z,99.99
2016-06-10T01:51:41.378Z,99.99
2016-06-10T01:51:51.394Z,99.99
2016-06-10T01:52:01.394Z,99.99
2016-06-10T01:52:11.394Z,99.99
2016-06-10T01:52:21.397Z,99.99
2016-06-10T01:52:31.412Z,99.99
2016-06-10T01:52:41.412Z,99.99
2016-06-10T01:52:51.412Z,99.99
2016-06-10T01:53:01.428Z,99.99
2016-06-10T01:53:11.428Z,99.99
2016-06-10T01:53:21.430Z,99.99
2016-06-10T01:53:31.430Z,99.99
2016-06-10T01:53:41.446Z,99.99
2016-06-10T01:53:51.446Z,99.99
2016-06-10T01:54:01.446Z,99.99
2016-06-10T01:54:11.446Z,99.99
2016-06-10T01:54:21.465Z,99.99
2016-06-10T01:54:31.465Z,99.99
2016-06-10T01:54:41.465Z,99.99
2016-06-10T01:54:51.481Z,99.99
2016-06-10T01:55:01.481Z,99.99
2016-06-10T01:55:11.496Z,99.99
2016-06-10T01:55:22.093Z,99.99
2016-06-10T01:55:31.499Z,99.99
2016-06-10T01:55:41.499Z,99.99
2016-06-10T01:55:51.499Z,99.99
2016-06-10T01:56:01.515Z,99.99
2016-06-10T01:56:11.515Z,99.99
2016-06-10T01:56:21.517Z,99.99
2016-06-10T01:56:31.533Z,99.99
2016-06-10T01:56:41.533Z,99.99
2016-06-10T01:56:51.533Z,99.99
2016-06-10T01:57:01.533Z,99.99
2016-06-10T01:57:11.533Z,99.99
2016-06-10T01:57:21.552Z,99.99
2016-06-10T01:57:31.552Z,99.99
2016-06-10T01:57:41.584Z,99.99
2016-06-10T01:57:51.568Z,99.99
2016-06-10T01:58:01.568Z,99.99
2016-06-10T01:58:11.568Z,99.99
2016-06-10T01:58:21.587Z,99.99
2016-06-10T01:58:31.587Z,99.99
2016-06-10T01:58:41.587Z,99.99
2016-06-10T01:58:51.587Z,99.99
2016-06-10T01:59:01.602Z,99.99
2016-06-10T01:59:11.602Z,99.99
2016-06-10T01:59:21.605Z,99.99
2016-06-10T01:59:31.605Z,99.99
2016-06-10T01:59:41.621Z,99.99
2016-06-10T01:59:51.621Z,99.99
2016-06-10T02:00:01.621Z,99.99
2016-06-10T02:00:11.636Z,99.99
2016-06-10T02:00:21.639Z,99.99
2016-06-10T02:00:31.639Z,99.99
2016-06-10T02:00:41.655Z,99.99
2016-06-10T02:00:51.655Z,99.99
2016-06-10T02:01:01.655Z,99.99
2016-06-10T02:01:11.655Z,99.99
2016-06-10T02:01:21.674Z,99.99
2016-06-10T02:01:31.674Z,99.99
2016-06-10T02:01:41.674Z,99.99
2016-06-10T02:01:51.689Z,99.99
2016-06-10T02:02:01.689Z,99.99
2016-06-10T02:02:11.705Z,99.99
2016-06-10T02:02:21.692Z,99.99
2016-06-10T02:02:31.708Z,99.99
2016-06-10T02:02:41.708Z,99.99
2016-06-10T02:02:51.708Z,99.99
2016-06-10T02:03:01.708Z,99.99
2016-06-10T02:03:11.724Z,99.99
2016-06-10T02:03:21.727Z,99.99
2016-06-10T02:03:31.727Z,99.99
2016-06-10T02:03:41.742Z,99.99
2016-06-10T02:03:51.742Z,99.99
2016-06-10T02:04:01.742Z,99.99
2016-06-10T02:04:11.758Z,99.99
2016-06-10T02:04:21.761Z,99.99
2016-06-10T02:04:31.761Z,99.99
2016-06-10T02:04:41.761Z,99.99
2016-06-10T02:04:51.776Z,99.99
2016-06-10T02:05:01.776Z,99.99
2016-06-10T02:05:11.776Z,99.99
2016-06-10T02:05:21.780Z,99.99
2016-06-10T02:05:31.796Z,99.99
2016-06-10T02:05:41.796Z,99.99
2016-06-10T02:05:51.796Z,99.99
2016-06-10T02:06:01.812Z,99.99
2016-06-10T02:06:11.812Z,99.99
2016-06-10T02:06:21.814Z,99.99
2016-06-10T02:06:31.814Z,99.99
2016-06-10T02:06:41.829Z,99.99
2016-06-10T02:06:51.829Z,99.99
2016-06-10T02:07:01.845Z,99.99
2016-06-10T02:07:11.845Z,99.99
2016-06-10T02:07:21.849Z,99.99
2016-06-10T02:07:31.849Z,99.99
2016-06-10T02:07:41.865Z,99.99
2016-06-10T02:07:51.865Z,99.99
2016-06-10T02:08:01.865Z,99.99
2016-06-10T02:08:11.865Z,99.99
2016-06-10T02:08:21.883Z,99.99
2016-06-10T02:08:31.883Z,99.99
2016-06-10T02:08:41.883Z,99.99
2016-06-10T02:08:51.899Z,99.99
2016-06-10T02:09:01.899Z,99.99
2016-06-10T02:09:11.899Z,99.99
2016-06-10T02:09:21.901Z,99.99
2016-06-10T02:09:31.916Z,99.99
2016-06-10T02:09:41.916Z,99.99
2016-06-10T02:09:51.932Z,99.99
2016-06-10T02:10:02.682Z,99.99
2016-06-10T02:10:12.291Z,99.99
2016-06-10T02:10:21.936Z,99.99
2016-06-10T02:10:31.952Z,99.99